Time;durP1;ratioP1;P1;durP2;ratioP2;P2;SDS_P1;SDS_P2;PMS_P1;PMS_P2;Temp;Humidity;BMP_temperature;BMP_pressure;BME280_temperature;BME280_humidity;BME280_pressure;Samples;Min_cycle;Max_cycle;Signal;HPM_P1;HPM_P2
2022/03/04 00:01:17;;;;;;;9.13;5.60;;;;;;;0.26;55.98;99129.97;5064857;28;20025;-62
2022/03/04 00:03:42;;;;;;;8.75;4.97;;;;;;;0.23;55.76;99135.00;5064913;28;20025;-62
2022/03/04 00:06:09;;;;;;;9.40;5.10;;;;;;;0.31;55.39;99125.78;5064708;28;20349;-62
2022/03/04 00:08:34;;;;;;;10.15;5.45;;;;;;;0.34;56.56;99126.69;5063963;28;20066;-62
2022/03/04 00:11:02;;;;;;;8.40;5.65;;;;;;;0.23;56.35;99130.78;5064903;28;20020;-64
2022/03/04 00:13:29;;;;;;;13.82;6.03;;;;;;;-0.09;56.70;99076.97;5063280;28;20645;-65
2022/03/04 00:15:55;;;;;;;10.77;5.40;;;;;;;0.38;56.87;99139.44;5064726;28;20024;-64
2022/03/04 00:18:21;;;;;;;11.95;6.05;;;;;;;0.33;55.91;99136.84;5064700;28;20198;-65
2022/03/04 00:20:46;;;;;;;8.43;5.38;;;;;;;0.10;56.54;99123.84;5064573;28;20021;-64
2022/03/04 00:23:13;;;;;;;13.15;6.03;;;;;;;0.20;56.79;99133.31;5064447;28;20040;-61
2022/03/04 00:25:39;;;;;;;8.13;5.18;;;;;;;0.29;57.11;99135.94;5063265;28;20083;-61
2022/03/04 00:28:04;;;;;;;9.63;5.18;;;;;;;0.32;57.05;99135.13;5064351;28;20029;-61
2022/03/04 00:30:30;;;;;;;13.82;5.80;;;;;;;0.29;58.08;99140.19;5064321;28;20031;-60
2022/03/04 00:32:55;;;;;;;8.68;5.85;;;;;;;0.31;57.59;99141.06;5064135;28;20025;-63
2022/03/04 00:35:21;;;;;;;8.05;5.32;;;;;;;0.31;57.14;99141.06;5064437;28;20191;-61
2022/03/04 00:37:46;;;;;;;12.68;5.60;;;;;;;0.30;57.80;99147.84;5060624;28;20021;-62
2022/03/04 00:40:14;;;;;;;9.60;5.18;;;;;;;0.29;57.75;99150.38;5064364;28;20021;-62
2022/03/04 00:42:40;;;;;;;10.25;5.60;;;;;;;0.30;58.02;99141.88;5064124;28;20344;-62
2022/03/04 00:45:06;;;;;;;11.23;5.63;;;;;;;0.30;58.59;99141.88;5064451;28;20056;-62
2022/03/04 00:47:31;;;;;;;11.60;5.55;;;;;;;0.23;57.94;99145.19;5063059;28;20066;-61
2022/03/04 00:49:58;;;;;;;16.23;6.15;;;;;;;0.26;57.75;99147.81;5070066;28;20024;-61
2022/03/04 00:52:24;;;;;;;10.40;5.10;;;;;;;0.15;58.51;99138.31;5066883;28;20032;-61
2022/03/04 00:54:50;;;;;;;9.88;5.15;;;;;;;0.10;57.94;99141.66;5063941;28;20114;-61
2022/03/04 00:57:15;;;;;;;11.75;5.28;;;;;;;0.22;58.60;99153.69;5064036;28;20329;-61
2022/03/04 00:59:41;;;;;;;11.27;5.38;;;;;;;0.17;57.60;99151.94;5063814;28;20025;-61
2022/03/04 01:02:07;;;;;;;10.95;5.03;;;;;;;0.13;57.88;99152.75;5063893;28;20021;-60
2022/03/04 01:04:32;;;;;;;10.30;5.80;;;;;;;0.10;58.57;99157.81;5063721;28;20067;-61
2022/03/04 01:06:58;;;;;;;11.13;5.20;;;;;;;0.06;58.45;99150.97;5063561;28;20110;-61
2022/03/04 01:09:24;;;;;;;9.38;5.43;;;;;;;-0.02;58.12;99150.84;5063685;28;20052;-60
2022/03/04 01:11:49;;;;;;;12.63;5.70;;;;;;;-0.10;58.24;99138.88;5062517;28;20044;-61
2022/03/04 01:14:15;;;;;;;8.98;5.63;;;;;;;-0.01;58.41;99149.19;5063398;28;20021;-60
2022/03/04 01:16:40;;;;;;;9.30;5.32;;;;;;;-0.04;58.56;99149.16;5063597;28;20029;-61
2022/03/04 01:19:06;;;;;;;10.63;5.30;;;;;;;0.02;59.47;99145.81;5063200;28;20024;-61
2022/03/04 01:21:32;;;;;;;11.45;5.40;;;;;;;-0.17;59.67;99130.31;5063400;28;20033;-61
2022/03/04 01:23:57;;;;;;;10.93;5.25;;;;;;;-0.44;59.54;99133.31;5063446;28;20033;-61
2022/03/04 01:26:23;;;;;;;8.70;5.10;;;;;;;-0.36;59.53;99142.81;5063438;28;20039;-61
2022/03/04 01:28:49;;;;;;;10.68;5.90;;;;;;;-0.38;60.69;99141.06;5062164;28;20206;-61
2022/03/04 01:31:15;;;;;;;10.02;5.97;;;;;;;-0.33;59.47;99133.50;5063099;28;20371;-61
2022/03/04 01:33:41;;;;;;;10.27;5.20;;;;;;;-0.29;60.89;99141.19;5063396;28;20036;-61
2022/03/04 01:36:07;;;;;;;9.63;5.32;;;;;;;-0.26;60.49;99135.28;5063150;28;20054;-62
2022/03/04 01:38:33;;;;;;;9.68;5.82;;;;;;;-0.52;59.99;99143.41;5061707;28;20025;-62
2022/03/04 01:40:59;;;;;;;12.20;5.20;;;;;;;-0.63;60.66;99138.16;5063093;28;20243;-63
2022/03/04 01:43:25;;;;;;;13.48;5.57;;;;;;;-0.53;60.00;99141.69;5062884;28;20071;-63
2022/03/04 01:45:50;;;;;;;9.48;5.53;;;;;;;-0.61;60.83;99139.06;5066142;28;20362;-62
2022/03/04 01:48:21;;;;;;;7.43;5.53;;;;;;;-0.71;60.49;99127.88;5074155;28;20020;-63
2022/03/04 01:50:51;;;;;;;9.65;5.53;;;;;;;-0.63;61.50;99130.53;5063011;28;20306;-61
2022/03/04 01:53:17;;;;;;;11.75;6.28;;;;;;;-0.69;61.08;99130.44;5062797;28;20025;-62
2022/03/04 01:55:43;;;;;;;11.90;6.50;;;;;;;-0.68;62.17;99128.75;5062861;28;20016;-61
2022/03/04 01:58:09;;;;;;;13.38;6.97;;;;;;;-0.78;62.22;99122.69;5062155;28;20271;-62
2022/03/04 02:00:35;;;;;;;14.48;6.60;;;;;;;-1.22;62.80;99122.00;5061786;28;20051;-61
2022/03/04 02:03:02;;;;;;;9.60;6.43;;;;;;;-0.93;62.21;99128.38;5062756;28;20041;-61
2022/03/04 02:05:28;;;;;;;10.23;6.35;;;;;;;-1.12;63.27;99114.53;5062677;28;20053;-62
2022/03/04 02:07:54;;;;;;;13.48;7.53;;;;;;;-0.96;62.64;99125.78;5055046;28;20032;-63
2022/03/04 02:10:21;;;;;;;12.75;7.53;;;;;;;-1.10;63.29;99110.31;5053832;28;20115;-63
2022/03/04 02:12:46;;;;;;;17.10;8.10;;;;;;;-1.16;63.25;99105.16;5061647;28;20024;-63
2022/03/04 02:15:12;;;;;;;13.35;8.65;;;;;;;-1.29;64.30;99115.09;5059967;28;20032;-64
2022/03/04 02:17:38;;;;;;;13.38;8.23;;;;;;;-1.46;64.24;99106.34;5062737;28;20089;-64
2022/03/04 02:20:05;;;;;;;13.82;7.53;;;;;;;-1.51;65.40;99121.50;5062218;28;20025;-62
2022/03/04 02:22:32;;;;;;;13.32;7.68;;;;;;;-1.69;65.67;99103.41;5062892;28;20048;-60
2022/03/04 02:24:58;;;;;;;13.80;8.15;;;;;;;-1.44;65.22;99110.63;5062876;28;20033;-60
2022/03/04 02:27:23;;;;;;;11.88;7.22;;;;;;;-1.53;65.40;99107.91;5062556;28;20088;-61
2022/03/04 02:29:49;;;;;;;15.93;7.93;;;;;;;-1.55;65.55;99109.59;5062505;28;20025;-62
2022/03/04 02:32:15;;;;;;;14.70;8.77;;;;;;;-1.59;64.94;99106.13;5062416;28;20048;-61
2022/03/04 02:34:41;;;;;;;18.65;9.45;;;;;;;-1.74;66.13;99105.84;5062525;28;20123;-61
2022/03/04 02:37:07;;;;;;;14.70;8.48;;;;;;;-1.63;66.22;99099.28;5066125;28;20013;-61
2022/03/04 02:39:32;;;;;;;15.85;8.85;;;;;;;-1.52;65.67;99104.56;5064880;28;20028;-61
2022/03/04 02:41:58;;;;;;;17.52;9.13;;;;;;;-1.54;67.31;99103.66;5066088;28;20025;-62
2022/03/04 02:44:24;;;;;;;13.27;8.13;;;;;;;-1.59;66.44;99102.75;5066061;28;20028;-61
2022/03/04 02:46:49;;;;;;;13.88;8.48;;;;;;;-1.56;66.47;99096.00;5065539;28;20092;-62
2022/03/04 02:49:15;;;;;;;15.82;9.25;;;;;;;-1.65;66.58;99102.63;5066512;28;20029;-62
2022/03/04 02:51:40;;;;;;;15.20;9.00;;;;;;;-1.55;67.03;99107.03;5066203;28;20351;-63
2022/03/04 02:54:06;;;;;;;13.43;9.07;;;;;;;-1.70;67.22;99114.38;5066428;28;20313;-64
2022/03/04 02:56:32;;;;;;;16.67;9.93;;;;;;;-1.79;67.65;99110.00;5066254;28;20024;-62
2022/03/04 02:58:58;;;;;;;16.23;10.05;;;;;;;-1.81;67.72;99121.78;5066066;28;20025;-62
2022/03/04 03:01:25;;;;;;;13.95;9.25;;;;;;;-1.83;67.77;99126.81;5066126;28;20031;-63
2022/03/04 03:03:51;;;;;;;15.23;9.30;;;;;;;-1.85;67.66;99123.41;5065987;28;20074;-62
2022/03/04 03:06:18;;;;;;;13.68;8.55;;;;;;;-2.06;68.99;99121.31;5066173;28;20045;-62
2022/03/04 03:08:43;;;;;;;17.63;9.43;;;;;;;-2.02;69.18;99115.47;5062180;28;20025;-61
2022/03/04 03:11:09;;;;;;;18.77;9.27;;;;;;;-1.99;69.25;99123.13;5066365;28;20262;-62
2022/03/04 03:13:34;;;;;;;16.42;9.07;;;;;;;-1.93;68.38;99133.41;5065763;28;20090;-63
2022/03/04 03:16:00;;;;;;;15.48;9.60;;;;;;;-1.95;68.26;99135.06;5065666;28;20032;-64
2022/03/04 03:18:26;;;;;;;15.43;9.38;;;;;;;-2.03;69.64;99128.97;5065749;28;20255;-63
2022/03/04 03:20:51;;;;;;;16.27;8.82;;;;;;;-1.99;68.58;99129.91;5065533;28;20097;-64
2022/03/04 03:23:17;;;;;;;16.92;9.00;;;;;;;-2.06;69.22;99144.13;5064636;28;20063;-64
2022/03/04 03:25:42;;;;;;;15.38;9.10;;;;;;;-2.34;69.30;99135.94;5065810;28;20083;-65
2022/03/04 03:28:08;;;;;;;17.38;9.48;;;;;;;-2.13;69.80;99148.22;5065847;28;20340;-65
2022/03/04 03:30:34;;;;;;;13.45;8.75;;;;;;;-2.03;69.21;99141.66;5064367;28;20037;-64
2022/03/04 03:32:59;;;;;;;17.75;9.45;;;;;;;-2.14;69.25;99131.31;5064125;28;20017;-64
2022/03/04 03:35:25;;;;;;;17.15;9.07;;;;;;;-2.11;69.63;99149.13;5066111;28;20143;-65
2022/03/04 03:37:51;;;;;;;17.45;9.43;;;;;;;-2.04;69.31;99145.00;5065597;28;20309;-62
2022/03/04 03:40:16;;;;;;;17.75;9.50;;;;;;;-1.98;69.52;99157.84;5066238;28;20017;-62
2022/03/04 03:42:42;;;;;;;18.67;8.98;;;;;;;-2.04;69.43;99152.63;5063936;28;20021;-62
2022/03/04 03:45:10;;;;;;;14.48;8.88;;;;;;;-2.06;68.80;99139.06;5065370;28;20028;-61
2022/03/04 03:47:35;;;;;;;17.08;8.90;;;;;;;-2.08;69.13;99150.88;5063996;28;20029;-62
2022/03/04 03:50:01;;;;;;;17.73;9.82;;;;;;;-2.15;70.40;99165.09;5065204;28;20028;-63
2022/03/04 03:52:28;;;;;;;15.05;9.13;;;;;;;-1.98;70.08;99167.13;5065083;28;20028;-62
2022/03/04 03:54:54;;;;;;;16.70;9.55;;;;;;;-2.02;69.89;99168.75;5063490;28;20249;-62
2022/03/04 03:57:19;;;;;;;15.60;9.43;;;;;;;-1.87;70.33;99172.41;5065183;28;20025;-62
2022/03/04 03:59:45;;;;;;;18.17;9.63;;;;;;;-1.93;69.37;99168.91;5064727;28;20036;-61
2022/03/04 04:02:10;;;;;;;18.50;9.25;;;;;;;-2.06;69.47;99154.28;5065180;28;20029;-61
2022/03/04 04:04:36;;;;;;;14.75;9.43;;;;;;;-1.99;69.77;99167.97;5064977;28;20217;-63
2022/03/04 04:07:04;;;;;;;16.30;9.25;;;;;;;-2.43;69.10;99105.34;5064696;28;20045;-62
2022/03/04 04:09:30;;;;;;;15.85;9.68;;;;;;;-2.12;69.74;99166.84;5061259;28;20040;-61
2022/03/04 04:11:55;;;;;;;18.52;11.10;;;;;;;-2.07;69.56;99172.84;5064905;28;20053;-63
2022/03/04 04:14:21;;;;;;;16.85;10.25;;;;;;;-2.06;69.83;99169.50;5064571;28;20024;-61
2022/03/04 04:16:46;;;;;;;16.73;10.50;;;;;;;-2.32;69.93;99133.47;5064724;28;20336;-61
2022/03/04 04:19:12;;;;;;;16.48;10.95;;;;;;;-2.08;69.92;99181.31;5064209;28;20021;-61
2022/03/04 04:21:38;;;;;;;18.35;10.82;;;;;;;-2.01;70.31;99179.75;5064892;28;20091;-62
2022/03/04 04:24:04;;;;;;;18.83;10.93;;;;;;;-2.06;70.09;99173.72;5064703;28;20229;-62
2022/03/04 04:26:30;;;;;;;19.75;11.25;;;;;;;-1.96;70.20;99191.69;5064700;28;20028;-62
2022/03/04 04:28:56;;;;;;;18.67;11.55;;;;;;;-2.06;70.23;99189.81;5063020;28;20130;-63
2022/03/04 04:31:21;;;;;;;17.55;11.25;;;;;;;-2.17;70.30;99189.56;5064449;28;20031;-61
2022/03/04 04:33:47;;;;;;;20.55;11.05;;;;;;;-2.03;71.26;99182.25;5063694;28;20016;-64
2022/03/04 04:36:12;;;;;;;21.33;11.98;;;;;;;-2.10;71.02;99182.94;5064506;28;20024;-63
2022/03/04 04:38:38;;;;;;;16.70;10.85;;;;;;;-2.35;71.10;99196.75;5063746;28;20033;-64
2022/03/04 04:41:04;;;;;;;16.55;11.40;;;;;;;-2.34;72.09;99201.88;5064242;28;20083;-63
2022/03/04 04:43:29;;;;;;;23.65;11.60;;;;;;;-2.38;72.51;99207.72;5063687;28;20178;-62
2022/03/04 04:45:55;;;;;;;19.33;12.13;;;;;;;-2.47;72.74;99207.50;5062293;28;20024;-63
2022/03/04 04:48:21;;;;;;;22.20;13.13;;;;;;;-2.45;73.16;99210.94;5063633;28;20096;-64
2022/03/04 04:50:47;;;;;;;23.48;12.50;;;;;;;-2.37;72.70;99217.00;5062566;28;20033;-63
2022/03/04 04:53:13;;;;;;;20.77;12.00;;;;;;;-2.38;73.12;99211.91;5063853;28;20025;-63
2022/03/04 04:55:38;;;;;;;19.90;12.68;;;;;;;-2.51;73.41;99203.16;5063384;28;20032;-62
2022/03/04 04:58:04;;;;;;;20.00;12.43;;;;;;;-2.64;73.44;99200.38;5063176;28;20021;-63
2022/03/04 05:00:30;;;;;;;22.40;13.65;;;;;;;-2.62;74.09;99206.31;5063347;28;20025;-62
2022/03/04 05:02:56;;;;;;;19.17;12.60;;;;;;;-2.75;74.74;99206.84;5063748;28;20295;-64
2022/03/04 05:05:21;;;;;;;22.23;11.75;;;;;;;-2.98;75.98;99204.59;5062720;28;20225;-63
2022/03/04 05:07:47;;;;;;;19.92;13.07;;;;;;;-2.86;75.80;99215.88;5062418;28;20310;-63
2022/03/04 05:10:13;;;;;;;20.35;11.95;;;;;;;-2.79;75.73;99212.66;5063633;28;20155;-61
2022/03/04 05:12:40;;;;;;;23.60;13.77;;;;;;;-2.96;76.19;99214.78;5063178;28;20029;-62
2022/03/04 05:15:06;;;;;;;23.45;13.07;;;;;;;-2.84;75.77;99219.28;5063329;28;20195;-62
2022/03/04 05:17:32;;;;;;;20.45;12.73;;;;;;;-2.79;75.57;99228.72;5062233;28;20056;-63
2022/03/04 05:19:58;;;;;;;27.98;13.65;;;;;;;-3.06;76.33;99230.56;5062391;28;20025;-62
2022/03/04 05:22:23;;;;;;;20.13;13.63;;;;;;;-2.83;76.24;99228.59;5062985;28;20024;-62
2022/03/04 05:24:49;;;;;;;19.27;12.20;;;;;;;-2.85;76.12;99241.25;5063204;28;20082;-62
2022/03/04 05:27:15;;;;;;;23.92;13.35;;;;;;;-3.03;76.76;99236.56;5063496;28;20052;-61
2022/03/04 05:29:41;;;;;;;20.17;12.15;;;;;;;-2.96;76.43;99248.56;5063374;28;20029;-63
2022/03/04 05:32:07;;;;;;;21.85;12.45;;;;;;;-2.76;77.12;99245.66;5070070;28;20326;-62
2022/03/04 05:34:33;;;;;;;20.48;12.27;;;;;;;-2.97;76.75;99244.28;5063515;28;20382;-62
2022/03/04 05:36:59;;;;;;;18.45;12.50;;;;;;;-3.02;76.79;99232.31;5063642;28;20029;-63
2022/03/04 05:39:24;;;;;;;20.80;12.57;;;;;;;-2.78;76.60;99249.81;5061836;28;20025;-62
2022/03/04 05:41:50;;;;;;;19.23;12.95;;;;;;;-2.98;76.83;99244.25;5063178;28;20032;-62
2022/03/04 05:44:16;;;;;;;21.13;13.05;;;;;;;-2.81;76.58;99249.75;5062739;28;20021;-62
2022/03/04 05:46:42;;;;;;;20.55;12.38;;;;;;;-2.57;76.34;99230.91;5062855;28;20025;-62
2022/03/04 05:49:07;;;;;;;21.45;13.25;;;;;;;-2.51;75.49;99243.72;5062817;28;20025;-62
2022/03/04 05:51:34;;;;;;;20.00;12.57;;;;;;;-2.44;76.10;99253.19;5061569;28;20039;-62
2022/03/04 05:54:00;;;;;;;18.00;11.95;;;;;;;-2.40;75.98;99251.59;5062986;28;20043;-63
2022/03/04 05:56:25;;;;;;;19.50;13.63;;;;;;;-2.41;75.50;99253.25;5062683;28;20325;-62
2022/03/04 05:58:51;;;;;;;22.20;12.48;;;;;;;-2.63;76.07;99252.75;5062895;28;20017;-63
2022/03/04 06:01:17;;;;;;;19.63;12.18;;;;;;;-2.46;75.85;99260.75;5060937;28;20021;-62
2022/03/04 06:03:43;;;;;;;19.60;11.80;;;;;;;-2.42;75.64;99266.78;5062489;28;20025;-64
2022/03/04 06:06:13;;;;;;;20.70;11.70;;;;;;;-2.29;75.56;99257.78;5061308;28;20044;-62
2022/03/04 06:08:39;;;;;;;20.02;12.30;;;;;;;-2.30;75.51;99261.13;5060448;28;20028;-62
2022/03/04 06:11:09;;;;;;;20.25;12.93;;;;;;;-2.27;75.41;99254.47;5061502;28;20021;-63
2022/03/04 06:13:36;;;;;;;19.88;11.40;;;;;;;-2.20;74.96;99247.84;5062091;28;20066;-61
2022/03/04 06:16:02;;;;;;;20.58;12.10;;;;;;;-2.15;74.75;99246.25;5062184;28;20100;-63
2022/03/04 06:18:28;;;;;;;18.88;11.60;;;;;;;-2.32;75.03;99245.88;5062161;28;20056;-62
2022/03/04 06:20:53;;;;;;;20.50;11.23;;;;;;;-2.40;75.36;99257.50;5061851;28;20078;-63
2022/03/04 06:23:19;;;;;;;18.08;11.80;;;;;;;-2.22;75.07;99257.09;5062521;28;20023;-62
2022/03/04 06:25:44;;;;;;;15.43;11.20;;;;;;;-2.18;75.13;99280.84;5062514;28;20051;-63
2022/03/04 06:28:10;;;;;;;21.13;10.88;;;;;;;-2.31;74.96;99260.28;5062721;28;20225;-63
2022/03/04 06:30:36;;;;;;;16.35;10.27;;;;;;;-2.40;74.94;99249.91;5060669;28;20048;-63
2022/03/04 06:35:48;;;;;;;15.10;10.38;;;;;;;-2.31;75.30;99255.22;5061410;28;20275;-62
2022/03/04 06:38:14;;;;;;;14.82;9.45;;;;;;;-2.32;74.48;99248.41;5061210;28;20021;-63
2022/03/04 06:40:40;;;;;;;15.23;9.65;;;;;;;-2.07;74.87;99251.50;5061462;28;20049;-62
2022/03/04 06:43:07;;;;;;;14.52;9.00;;;;;;;-2.27;74.56;99248.50;5061188;28;20056;-64
2022/03/04 06:45:33;;;;;;;14.60;9.35;;;;;;;-2.28;74.17;99250.19;5060377;28;20319;-62
2022/03/04 06:47:59;;;;;;;13.80;9.48;;;;;;;-2.14;74.57;99245.44;5061687;28;20025;-62
2022/03/04 06:50:25;;;;;;;13.50;8.57;;;;;;;-2.28;73.92;99260.34;5061440;28;20428;-63
2022/03/04 06:52:51;;;;;;;14.25;9.30;;;;;;;-2.20;74.11;99240.22;5060722;28;20087;-63
2022/03/04 06:55:17;;;;;;;14.48;8.57;;;;;;;-2.10;73.56;99264.97;5061595;28;20048;-63
2022/03/04 06:57:42;;;;;;;14.32;7.90;;;;;;;-2.08;73.79;99247.28;5061997;28;20041;-62
2022/03/04 07:00:10;;;;;;;17.23;8.70;;;;;;;-2.05;74.61;99261.69;5060567;28;20035;-63
2022/03/04 07:02:37;;;;;;;15.15;9.23;;;;;;;-1.89;74.00;99260.34;5061963;28;20360;-63
2022/03/04 07:05:06;;;;;;;12.80;8.35;;;;;;;-1.88;73.37;99251.91;5061783;28;20052;-63
2022/03/04 07:07:32;;;;;;;15.35;8.65;;;;;;;-2.10;73.11;99257.34;5058936;28;20030;-63
2022/03/04 07:09:58;;;;;;;10.18;8.00;;;;;;;-2.06;73.54;99263.38;5054260;28;20044;-62
2022/03/04 07:12:24;;;;;;;12.80;7.63;;;;;;;-2.13;73.44;99253.91;5062040;28;20028;-62
2022/03/04 07:14:50;;;;;;;13.27;8.15;;;;;;;-1.94;73.40;99250.09;5061707;28;20017;-63
2022/03/04 07:17:17;;;;;;;14.63;8.55;;;;;;;-1.92;73.59;99264.53;5061895;28;20029;-63
2022/03/04 07:19:42;;;;;;;15.85;8.43;;;;;;;-1.63;72.65;99271.06;5061716;28;20033;-62
2022/03/04 07:22:08;;;;;;;13.13;8.07;;;;;;;-1.71;72.56;99255.69;5063819;28;20059;-63
2022/03/04 07:24:34;;;;;;;13.52;8.27;;;;;;;-1.51;72.64;99265.34;5065370;28;20149;-62
2022/03/04 07:26:59;;;;;;;13.65;8.25;;;;;;;-1.63;72.51;99258.34;5065358;28;20033;-63
2022/03/04 07:29:25;;;;;;;10.77;7.57;;;;;;;-1.52;72.29;99261.13;5044268;28;20033;-63
2022/03/04 07:31:53;;;;;;;11.13;7.55;;;;;;;-1.39;72.00;99258.00;5059754;28;20084;-64
2022/03/04 07:34:25;;;;;;;14.48;8.02;;;;;;;-1.33;71.59;99270.81;5065538;28;20032;-62
2022/03/04 07:36:54;;;;;;;13.20;7.85;;;;;;;-1.11;71.75;99269.53;5065526;28;20042;-63
2022/03/04 07:39:20;;;;;;;10.18;7.28;;;;;;;-1.29;70.39;99259.03;5065230;28;20032;-62
2022/03/04 07:41:48;;;;;;;14.02;7.32;;;;;;;-1.77;70.41;99200.56;5065100;28;20221;-63
2022/03/04 07:44:15;;;;;;;14.95;8.45;;;;;;;-1.29;70.72;99272.59;5063402;28;20044;-63
2022/03/04 07:46:40;;;;;;;13.57;7.70;;;;;;;-1.18;71.29;99264.31;5064916;28;20032;-62
2022/03/04 07:49:06;;;;;;;12.35;8.18;;;;;;;-1.28;71.10;99276.84;5064594;28;20174;-63
2022/03/04 07:51:33;;;;;;;11.20;7.45;;;;;;;-1.06;70.09;99274.72;5064586;28;20049;-62
2022/03/04 07:53:59;;;;;;;14.55;7.78;;;;;;;-0.96;70.18;99268.13;5063894;28;20029;-63
2022/03/04 07:56:24;;;;;;;10.30;7.78;;;;;;;-0.95;69.70;99285.09;5063606;28;20340;-63
2022/03/04 07:58:50;;;;;;;15.65;8.00;;;;;;;-0.95;70.00;99283.38;5065032;28;20028;-63
2022/03/04 08:01:16;;;;;;;13.18;6.50;;;;;;;-0.93;69.32;99279.19;5063616;28;20025;-62
2022/03/04 08:03:45;;;;;;;14.85;7.57;;;;;;;-0.82;68.89;99286.16;5065032;28;20118;-62
2022/03/04 08:06:11;;;;;;;8.45;6.03;;;;;;;-0.78;69.71;99286.22;5064250;28;20051;-61
2022/03/04 08:08:36;;;;;;;11.32;7.78;;;;;;;-0.98;68.63;99275.72;5060754;28;20024;-62
2022/03/04 08:11:02;;;;;;;10.38;7.40;;;;;;;-0.78;68.95;99280.31;5063660;28;20017;-62
2022/03/04 08:13:28;;;;;;;13.27;8.02;;;;;;;-0.57;69.20;99285.75;5063044;28;20025;-61
2022/03/04 08:15:53;;;;;;;11.18;6.88;;;;;;;-0.47;68.05;99288.44;5064750;28;20078;-62
2022/03/04 08:18:19;;;;;;;16.05;8.95;;;;;;;-0.48;67.89;99285.06;5064068;28;20037;-62
2022/03/04 08:20:45;;;;;;;15.50;7.72;;;;;;;-0.48;68.40;99291.84;5064326;28;20032;-61
2022/03/04 08:23:11;;;;;;;13.50;7.53;;;;;;;-0.68;68.87;99288.91;5061329;28;20039;-62
2022/03/04 08:25:38;;;;;;;14.10;8.40;;;;;;;-0.94;68.80;99280.03;5063626;28;20025;-63
2022/03/04 08:28:07;;;;;;;14.80;7.75;;;;;;;-0.82;69.52;99270.91;5062465;28;20116;-63
2022/03/04 08:30:32;;;;;;;15.35;7.85;;;;;;;-0.55;69.52;99279.00;5063381;28;20024;-63
2022/03/04 08:32:59;;;;;;;13.50;7.60;;;;;;;-0.58;69.38;99273.88;5062763;28;20222;-62
2022/03/04 08:35:25;;;;;;;10.68;7.03;;;;;;;-0.52;68.58;99278.19;5063356;28;20340;-63
2022/03/04 08:37:52;;;;;;;10.25;7.53;;;;;;;-0.74;68.38;99272.75;5063875;28;20025;-63
2022/03/04 08:40:18;;;;;;;18.88;7.63;;;;;;;-1.16;69.70;99272.81;5063781;28;20025;-63
2022/03/04 08:42:45;;;;;;;12.55;6.80;;;;;;;-0.99;69.24;99280.78;5063508;28;20035;-63
2022/03/04 08:45:13;;;;;;;10.93;7.05;;;;;;;-0.81;69.76;99272.59;5061717;28;20024;-62
2022/03/04 08:47:41;;;;;;;12.15;7.53;;;;;;;-0.65;69.32;99272.03;5059834;28;20029;-61
2022/03/04 08:50:08;;;;;;;16.83;8.88;;;;;;;-0.54;68.29;99288.34;5062709;28;20029;-62
2022/03/04 08:52:34;;;;;;;15.55;7.82;;;;;;;-0.74;68.07;99237.16;5063071;28;20048;-63
2022/03/04 08:55:00;;;;;;;14.40;7.05;;;;;;;-0.31;68.08;99292.06;5063503;28;20017;-62
2022/03/04 08:57:25;;;;;;;9.05;6.68;;;;;;;-0.41;68.03;99269.06;5063363;28;20070;-63
2022/03/04 08:59:54;;;;;;;12.55;7.38;;;;;;;0.02;66.92;99286.66;5062137;28;20033;-63
2022/03/04 09:02:19;;;;;;;10.90;7.07;;;;;;;0.23;67.28;99269.97;5062999;28;20051;-63
2022/03/04 09:04:45;;;;;;;11.00;5.85;;;;;;;0.07;65.51;99261.28;5062887;28;20058;-62
2022/03/04 09:07:10;;;;;;;12.80;6.13;;;;;;;0.39;66.11;99259.16;5062114;28;20090;-62
2022/03/04 09:09:36;;;;;;;9.48;6.57;;;;;;;0.31;65.81;99269.25;5062622;28;20024;-62
2022/03/04 09:12:02;;;;;;;11.85;6.18;;;;;;;0.22;65.58;99258.09;5062464;28;20337;-62
2022/03/04 09:14:28;;;;;;;15.77;5.65;;;;;;;0.09;65.59;99267.25;5061252;28;20333;-63
2022/03/04 09:16:53;;;;;;;15.65;5.88;;;;;;;-0.15;66.14;99265.22;5063699;28;20056;-62
2022/03/04 09:19:19;;;;;;;10.35;6.15;;;;;;;-0.20;65.82;99270.22;5063280;28;22006;-62
2022/03/04 09:21:47;;;;;;;15.05;6.03;;;;;;;-0.17;66.52;99265.19;5063437;28;20033;-62
2022/03/04 09:24:13;;;;;;;12.55;6.13;;;;;;;-0.02;66.04;99267.09;5045495;28;20029;-61
2022/03/04 09:26:38;;;;;;;7.43;4.82;;;;;;;-0.47;66.97;99253.69;5063387;28;20029;-62
2022/03/04 09:29:04;;;;;;;10.68;5.13;;;;;;;-0.29;66.78;99268.38;5063023;28;20029;-62
2022/03/04 09:31:30;;;;;;;12.48;5.30;;;;;;;-0.02;66.22;99278.13;5062581;28;20195;-62
2022/03/04 09:33:55;;;;;;;9.63;5.38;;;;;;;0.10;65.79;99282.53;5062882;28;20028;-62
2022/03/04 09:36:21;;;;;;;7.07;4.78;;;;;;;0.15;65.51;99282.59;5063038;28;20037;-63
2022/03/04 09:38:46;;;;;;;7.35;4.43;;;;;;;0.35;65.24;99280.31;5062507;28;20071;-61
2022/03/04 09:41:12;;;;;;;12.00;6.90;;;;;;;0.10;65.73;99267.28;5062655;28;20032;-62
2022/03/04 09:43:39;;;;;;;11.45;5.32;;;;;;;0.35;65.25;99275.22;5061261;28;20276;-61
2022/03/04 09:46:05;;;;;;;8.10;4.97;;;;;;;0.40;65.79;99257.44;5060367;28;20025;-62
2022/03/04 09:48:33;;;;;;;10.05;4.88;;;;;;;0.41;64.78;99269.38;5061636;28;20203;-62
2022/03/04 09:50:59;;;;;;;10.70;4.60;;;;;;;0.40;64.83;99265.09;5060777;28;20105;-62
2022/03/04 09:53:26;;;;;;;6.65;4.35;;;;;;;0.49;64.09;99271.16;5062005;28;20024;-62
2022/03/04 09:55:52;;;;;;;6.82;4.20;;;;;;;0.61;64.20;99261.97;5062078;28;20068;-62
2022/03/04 09:58:18;;;;;;;9.23;3.95;;;;;;;0.74;63.59;99262.97;5061954;28;20055;-62
2022/03/04 10:00:45;;;;;;;7.78;3.90;;;;;;;0.76;63.88;99266.41;5060639;28;20056;-61
2022/03/04 10:03:47;;;;;;;7.35;3.50;;;;;;;0.81;64.04;99255.41;5062017;28;20021;-62
2022/03/04 10:06:14;;;;;;;10.85;4.03;;;;;;;0.71;64.23;99253.56;5052890;28;20045;-62
2022/03/04 10:08:42;;;;;;;6.60;4.03;;;;;;;0.79;63.55;99231.59;5058841;28;20048;-61
2022/03/04 10:11:08;;;;;;;15.63;4.10;;;;;;;0.86;63.37;99251.19;5061749;28;20059;-62
2022/03/04 10:13:47;;;;;;;7.15;3.05;;;;;;;0.89;63.51;99247.00;5061402;28;20037;-61
2022/03/04 10:16:26;;;;;;;5.38;3.40;;;;;;;0.92;63.30;99258.06;5061700;28;20091;-62
2022/03/04 10:19:17;;;;;;;4.95;3.58;;;;;;;1.13;62.93;99248.94;5061065;28;20107;-62
2022/03/04 10:21:46;;;;;;;5.78;3.35;;;;;;;1.04;62.81;99249.66;5060323;28;20219;-62
2022/03/04 10:24:12;;;;;;;6.45;3.50;;;;;;;1.10;63.01;99247.22;5060992;28;20052;-61
2022/03/04 10:26:38;;;;;;;8.10;3.67;;;;;;;1.00;63.00;99241.16;5051003;28;20310;-61
2022/03/04 10:29:30;;;;;;;4.43;3.13;;;;;;;1.27;62.72;99244.81;5062323;28;20044;-61
2022/03/04 10:32:09;;;;;;;4.82;3.25;;;;;;;1.34;62.69;99243.16;5061367;28;20345;-61
2022/03/04 10:35:03;;;;;;;5.00;3.15;;;;;;;1.34;62.13;99240.59;5062341;28;20032;-62
2022/03/04 10:37:46;;;;;;;4.55;2.70;;;;;;;1.46;61.36;99244.97;5060064;28;20025;-61
2022/03/04 10:40:15;;;;;;;;;;;;;;;1.71;60.91;99236.66;5055757;28;20032;-61
2022/03/04 10:42:51;;;;;;;14.80;4.30;;;;;;;1.53;61.22;99229.72;5055171;28;19932;-62
2022/03/04 10:45:17;;;;;;;4.47;2.70;;;;;;;1.48;61.86;99222.84;5047771;28;20029;-61
2022/03/04 10:48:02;;;;;;;5.63;2.90;;;;;;;1.61;60.85;99221.25;5047950;28;20029;-62
2022/03/04 10:50:33;;;;;;;5.57;2.97;;;;;;;1.45;60.68;99221.13;5051339;28;20040;-61
2022/03/04 10:52:59;;;;;;;7.35;2.65;;;;;;;1.43;61.70;99230.50;5059385;28;20325;-62
2022/03/04 10:55:32;;;;;;;3.40;2.60;;;;;;;1.44;61.32;99237.31;5060872;28;20064;-61
2022/03/04 10:57:59;;;;;;;5.18;2.92;;;;;;;1.54;61.35;99226.31;5063335;28;20099;-60
2022/03/04 11:00:27;;;;;;;8.68;3.15;;;;;;;1.49;62.43;99225.41;5065563;28;20017;-61
2022/03/04 11:02:54;;;;;;;4.85;3.30;;;;;;;1.33;61.12;99215.94;5065949;28;20033;-60
2022/03/04 11:05:21;;;;;;;5.70;2.38;;;;;;;1.17;61.57;99225.19;5065827;28;20041;-61
2022/03/04 11:07:47;;;;;;;4.85;3.00;;;;;;;1.46;62.26;99220.28;5060741;28;20332;-61
2022/03/04 11:10:13;;;;;;;11.52;5.47;;;;;;;1.43;61.38;99211.78;5066098;28;20317;-61
2022/03/04 11:12:42;;;;;;;7.28;3.28;;;;;;;1.48;61.89;99227.97;5055935;28;20024;-62
2022/03/04 11:15:11;;;;;;;3.88;2.70;;;;;;;0.96;61.12;99157.00;5061453;28;20032;-61
2022/03/04 11:17:38;;;;;;;6.85;3.30;;;;;;;1.42;61.13;99226.22;5061219;28;20021;-62
2022/03/04 11:20:08;;;;;;;4.80;2.90;;;;;;;1.46;61.61;99230.50;5052921;28;20237;-61
2022/03/04 11:22:38;;;;;;;4.30;3.20;;;;;;;1.01;61.69;99196.09;5065829;28;20029;-62
2022/03/04 11:25:07;;;;;;;4.28;2.60;;;;;;;1.14;61.25;99207.28;5053128;28;20041;-62
2022/03/04 11:28:03;;;;;;;8.25;3.40;;;;;;;0.99;62.44;99197.81;5052883;28;20042;-62